sensor_id;sensor_type;location;lat;lon;timestamp;P1;durP1;ratioP1;P2;durP2;ratioP2
5026;SDS011;2532;52.480;13.354;2023-08-24T04:00:25;7.65;;;5.90;;
5026;SDS011;2532;52.480;13.354;2023-08-24T04:02:52;6.03;;;5.43;;
5026;SDS011;2532;52.480;13.354;2023-08-24T04:05:19;10.13;;;5.27;;
5026;SDS011;2532;52.480;13.354;2023-08-24T04:07:46;6.03;;;5.43;;
5026;SDS011;2532;52.480;13.354;2023-08-24T04:10:13;8.40;;;5.70;;
5026;SDS011;2532;52.480;13.354;2023-08-24T04:12:40;6.63;;;5.07;;
5026;SDS011;2532;52.480;13.354;2023-08-24T04:15:07;10.83;;;6.37;;
5026;SDS011;2532;52.480;13.354;2023-08-24T04:17:36;7.83;;;5.80;;
5026;SDS011;2532;52.480;13.354;2023-08-24T04:20:04;10.83;;;9.73;;
5026;SDS011;2532;52.480;13.354;2023-08-24T04:22:33;10.00;;;6.23;;
5026;SDS011;2532;52.480;13.354;2023-08-24T04:24:59;8.93;;;5.50;;
5026;SDS011;2532;52.480;13.354;2023-08-24T04:27:26;10.23;;;5.73;;
5026;SDS011;2532;52.480;13.354;2023-08-24T04:29:54;10.37;;;6.97;;
5026;SDS011;2532;52.480;13.354;2023-08-24T04:32:21;9.77;;;6.83;;
5026;SDS011;2532;52.480;13.354;2023-08-24T04:34:49;11.10;;;6.30;;
5026;SDS011;2532;52.480;13.354;2023-08-24T04:37:16;7.77;;;5.80;;
5026;SDS011;2532;52.480;13.354;2023-08-24T04:39:43;10.73;;;5.77;;
5026;SDS011;2532;52.480;13.354;2023-08-24T04:42:10;7.73;;;5.17;;
5026;SDS011;2532;52.480;13.354;2023-08-24T04:44:37;11.13;;;5.67;;
5026;SDS011;2532;52.480;13.354;2023-08-24T04:47:04;10.20;;;5.60;;
5026;SDS011;2532;52.480;13.354;2023-08-24T04:49:32;7.93;;;5.73;;
5026;SDS011;2532;52.480;13.354;2023-08-24T04:52:00;8.10;;;5.90;;
5026;SDS011;2532;52.480;13.354;2023-08-24T04:54:27;8.60;;;5.60;;
5026;SDS011;2532;52.480;13.354;2023-08-24T04:56:54;11.73;;;6.30;;
5026;SDS011;2532;52.480;13.354;2023-08-24T04:59:21;8.50;;;5.73;;
5026;SDS011;2532;52.480;13.354;2023-08-24T05:01:48;12.07;;;6.13;;
5026;SDS011;2532;52.480;13.354;2023-08-24T05:04:15;15.90;;;6.90;;
5026;SDS011;2532;52.480;13.354;2023-08-24T05:06:42;9.50;;;5.73;;
5026;SDS011;2532;52.480;13.354;2023-08-24T05:09:10;13.30;;;5.60;;
5026;SDS011;2532;52.480;13.354;2023-08-24T05:11:37;17.00;;;6.33;;
5026;SDS011;2532;52.480;13.354;2023-08-24T05:14:04;9.30;;;6.00;;
5026;SDS011;2532;52.480;13.354;2023-08-24T05:16:31;9.10;;;5.90;;
5026;SDS011;2532;52.480;13.354;2023-08-24T05:18:57;8.40;;;5.80;;
5026;SDS011;2532;52.480;13.354;2023-08-24T05:21:24;10.93;;;5.73;;
5026;SDS011;2532;52.480;13.354;2023-08-24T05:23:51;8.70;;;5.23;;
5026;SDS011;2532;52.480;13.354;2023-08-24T05:26:19;12.13;;;6.90;;
5026;SDS011;2532;52.480;13.354;2023-08-24T05:28:49;17.03;;;5.27;;
5026;SDS011;2532;52.480;13.354;2023-08-24T05:31:16;9.90;;;6.13;;
5026;SDS011;2532;52.480;13.354;2023-08-24T05:33:43;12.17;;;5.70;;
5026;SDS011;2532;52.480;13.354;2023-08-24T05:36:10;7.37;;;5.50;;
5026;SDS011;2532;52.480;13.354;2023-08-24T05:38:37;10.87;;;5.80;;
5026;SDS011;2532;52.480;13.354;2023-08-24T05:41:09;13.93;;;6.47;;
5026;SDS011;2532;52.480;13.354;2023-08-24T05:43:38;8.47;;;5.30;;
5026;SDS011;2532;52.480;13.354;2023-08-24T05:46:05;9.83;;;6.10;;
5026;SDS011;2532;52.480;13.354;2023-08-24T05:48:31;10.37;;;6.63;;
5026;SDS011;2532;52.480;13.354;2023-08-24T05:50:58;13.80;;;5.93;;
5026;SDS011;2532;52.480;13.354;2023-08-24T05:53:25;10.40;;;5.60;;
5026;SDS011;2532;52.480;13.354;2023-08-24T05:55:56;11.47;;;4.93;;
5026;SDS011;2532;52.480;13.354;2023-08-24T05:58:24;8.43;;;5.13;;
5026;SDS011;2532;52.480;13.354;2023-08-24T06:00:56;7.80;;;5.60;;
5026;SDS011;2532;52.480;13.354;2023-08-24T06:03:24;10.23;;;5.70;;
5026;SDS011;2532;52.480;13.354;2023-08-24T06:05:51;6.40;;;5.60;;
5026;SDS011;2532;52.480;13.354;2023-08-24T06:08:18;10.53;;;5.87;;
5026;SDS011;2532;52.480;13.354;2023-08-24T06:10:45;8.70;;;5.80;;
5026;SDS011;2532;52.480;13.354;2023-08-24T06:13:12;8.70;;;5.50;;
5026;SDS011;2532;52.480;13.354;2023-08-24T06:15:39;14.03;;;5.80;;
5026;SDS011;2532;52.480;13.354;2023-08-24T06:18:08;10.87;;;5.80;;
5026;SDS011;2532;52.480;13.354;2023-08-24T06:20:34;8.17;;;5.30;;
5026;SDS011;2532;52.480;13.354;2023-08-24T06:23:01;10.50;;;5.67;;
5026;SDS011;2532;52.480;13.354;2023-08-24T06:25:29;8.80;;;5.60;;
5026;SDS011;2532;52.480;13.354;2023-08-24T06:27:56;6.83;;;5.33;;
5026;SDS011;2532;52.480;13.354;2023-08-24T06:30:24;6.63;;;4.70;;
5026;SDS011;2532;52.480;13.354;2023-08-24T06:32:50;7.50;;;4.80;;
5026;SDS011;2532;52.480;13.354;2023-08-24T06:35:19;8.97;;;5.40;;
5026;SDS011;2532;52.480;13.354;2023-08-24T06:37:46;6.80;;;4.30;;
5026;SDS011;2532;52.480;13.354;2023-08-24T06:40:13;8.07;;;4.30;;
5026;SDS011;2532;52.480;13.354;2023-08-24T06:42:40;7.27;;;5.30;;
5026;SDS011;2532;52.480;13.354;2023-08-24T06:45:07;6.60;;;4.60;;
5026;SDS011;2532;52.480;13.354;2023-08-24T06:47:35;7.40;;;6.20;;
5026;SDS011;2532;52.480;13.354;2023-08-24T06:50:02;9.33;;;5.70;;
5026;SDS011;2532;52.480;13.354;2023-08-24T06:52:31;11.20;;;6.07;;
5026;SDS011;2532;52.480;13.354;2023-08-24T06:54:59;8.17;;;5.43;;
5026;SDS011;2532;52.480;13.354;2023-08-24T06:57:26;14.37;;;6.47;;
5026;SDS011;2532;52.480;13.354;2023-08-24T06:59:52;10.73;;;5.77;;
5026;SDS011;2532;52.480;13.354;2023-08-24T07:02:19;7.93;;;5.60;;
5026;SDS011;2532;52.480;13.354;2023-08-24T07:04:46;9.73;;;6.13;;
5026;SDS011;2532;52.480;13.354;2023-08-24T07:07:14;11.47;;;5.57;;
5026;SDS011;2532;52.480;13.354;2023-08-24T07:09:42;6.93;;;5.57;;
5026;SDS011;2532;52.480;13.354;2023-08-24T07:12:09;6.80;;;5.07;;
5026;SDS011;2532;52.480;13.354;2023-08-24T07:14:36;8.30;;;5.33;;
5026;SDS011;2532;52.480;13.354;2023-08-24T07:17:03;10.13;;;5.37;;
5026;SDS011;2532;52.480;13.354;2023-08-24T07:19:30;7.20;;;5.33;;
5026;SDS011;2532;52.480;13.354;2023-08-24T07:21:57;11.43;;;5.50;;
5026;SDS011;2532;52.480;13.354;2023-08-24T07:24:24;9.73;;;4.90;;
5026;SDS011;2532;52.480;13.354;2023-08-24T07:26:52;8.00;;;5.30;;
5026;SDS011;2532;52.480;13.354;2023-08-24T07:29:19;6.53;;;4.67;;
5026;SDS011;2532;52.480;13.354;2023-08-24T07:31:46;8.83;;;6.97;;
5026;SDS011;2532;52.480;13.354;2023-08-24T07:34:14;15.53;;;5.40;;
5026;SDS011;2532;52.480;13.354;2023-08-24T07:36:41;10.70;;;5.80;;
5026;SDS011;2532;52.480;13.354;2023-08-24T07:39:10;6.70;;;4.97;;
5026;SDS011;2532;52.480;13.354;2023-08-24T07:41:37;7.50;;;5.43;;
5026;SDS011;2532;52.480;13.354;2023-08-24T07:44:05;7.10;;;4.70;;
5026;SDS011;2532;52.480;13.354;2023-08-24T07:46:32;6.10;;;4.70;;
5026;SDS011;2532;52.480;13.354;2023-08-24T07:48:59;10.43;;;4.70;;
5026;SDS011;2532;52.480;13.354;2023-08-24T07:51:26;6.90;;;5.20;;
5026;SDS011;2532;52.480;13.354;2023-08-24T07:53:53;9.43;;;5.50;;
5026;SDS011;2532;52.480;13.354;2023-08-24T07:56:20;9.13;;;5.90;;
5026;SDS011;2532;52.480;13.354;2023-08-24T07:58:48;11.10;;;5.20;;
5026;SDS011;2532;52.480;13.354;2023-08-24T08:01:16;9.47;;;5.70;;
5026;SDS011;2532;52.480;13.354;2023-08-24T08:03:43;13.00;;;5.80;;
5026;SDS011;2532;52.480;13.354;2023-08-24T08:06:10;7.83;;;5.10;;
5026;SDS011;2532;52.480;13.354;2023-08-24T08:08:38;7.77;;;5.70;;
5026;SDS011;2532;52.480;13.354;2023-08-24T08:11:05;7.90;;;4.90;;
5026;SDS011;2532;52.480;13.354;2023-08-24T08:13:32;5.63;;;4.37;;
5026;SDS011;2532;52.480;13.354;2023-08-24T08:16:02;6.13;;;4.30;;
5026;SDS011;2532;52.480;13.354;2023-08-24T08:18:30;8.87;;;4.80;;
5026;SDS011;2532;52.480;13.354;2023-08-24T08:20:58;9.33;;;5.20;;
5026;SDS011;2532;52.480;13.354;2023-08-24T08:23:24;9.63;;;4.80;;
5026;SDS011;2532;52.480;13.354;2023-08-24T08:25:51;7.60;;;4.47;;
5026;SDS011;2532;52.480;13.354;2023-08-24T08:28:18;8.00;;;4.80;;
5026;SDS011;2532;52.480;13.354;2023-08-24T08:30:47;8.60;;;4.33;;
5026;SDS011;2532;52.480;13.354;2023-08-24T08:33:15;8.20;;;4.70;;
5026;SDS011;2532;52.480;13.354;2023-08-24T08:35:43;7.03;;;4.33;;
5026;SDS011;2532;52.480;13.354;2023-08-24T08:38:10;9.30;;;4.70;;
5026;SDS011;2532;52.480;13.354;2023-08-24T08:40:37;11.30;;;4.60;;
5026;SDS011;2532;52.480;13.354;2023-08-24T08:43:05;13.97;;;4.40;;
5026;SDS011;2532;52.480;13.354;2023-08-24T08:45:32;7.27;;;5.03;;
5026;SDS011;2532;52.480;13.354;2023-08-24T08:48:00;9.03;;;4.80;;
5026;SDS011;2532;52.480;13.354;2023-08-24T08:50:28;7.87;;;4.33;;
5026;SDS011;2532;52.480;13.354;2023-08-24T08:52:59;6.07;;;4.30;;
5026;SDS011;2532;52.480;13.354;2023-08-24T08:55:26;6.50;;;3.90;;
5026;SDS011;2532;52.480;13.354;2023-08-24T08:57:55;5.80;;;4.17;;
5026;SDS011;2532;52.480;13.354;2023-08-24T09:00:24;11.27;;;4.53;;
5026;SDS011;2532;52.480;13.354;2023-08-24T09:02:53;10.00;;;4.57;;
5026;SDS011;2532;52.480;13.354;2023-08-24T09:05:20;6.03;;;3.80;;
5026;SDS011;2532;52.480;13.354;2023-08-24T09:07:51;7.60;;;3.97;;
5026;SDS011;2532;52.480;13.354;2023-08-24T09:10:21;9.43;;;3.63;;
5026;SDS011;2532;52.480;13.354;2023-08-24T09:12:48;6.03;;;4.10;;
5026;SDS011;2532;52.480;13.354;2023-08-24T09:15:20;5.53;;;3.93;;
5026;SDS011;2532;52.480;13.354;2023-08-24T09:17:51;5.33;;;4.00;;
5026;SDS011;2532;52.480;13.354;2023-08-24T09:20:19;7.53;;;3.97;;
5026;SDS011;2532;52.480;13.354;2023-08-24T09:22:46;9.60;;;3.90;;
5026;SDS011;2532;52.480;13.354;2023-08-24T09:25:13;6.93;;;4.20;;
5026;SDS011;2532;52.480;13.354;2023-08-24T09:27:42;4.93;;;4.00;;
5026;SDS011;2532;52.480;13.354;2023-08-24T09:30:09;5.60;;;3.90;;
5026;SDS011;2532;52.480;13.354;2023-08-24T09:32:38;10.63;;;4.13;;
5026;SDS011;2532;52.480;13.354;2023-08-24T09:35:07;4.93;;;3.87;;
5026;SDS011;2532;52.480;13.354;2023-08-24T09:37:35;7.90;;;4.20;;
5026;SDS011;2532;52.480;13.354;2023-08-24T09:40:04;7.80;;;3.90;;
5026;SDS011;2532;52.480;13.354;2023-08-24T09:42:36;5.43;;;3.93;;
5026;SDS011;2532;52.480;13.354;2023-08-24T09:45:07;4.60;;;3.40;;
5026;SDS011;2532;52.480;13.354;2023-08-24T09:47:35;7.07;;;3.80;;
5026;SDS011;2532;52.480;13.354;2023-08-24T09:50:02;4.40;;;3.83;;
5026;SDS011;2532;52.480;13.354;2023-08-24T09:52:31;6.87;;;3.40;;
5026;SDS011;2532;52.480;13.354;2023-08-24T09:55:00;9.13;;;3.90;;
5026;SDS011;2532;52.480;13.354;2023-08-24T09:57:31;6.73;;;4.07;;
5026;SDS011;2532;52.480;13.354;2023-08-24T10:00:00;5.63;;;3.63;;
5026;SDS011;2532;52.480;13.354;2023-08-24T10:02:36;11.07;;;3.87;;
5026;SDS011;2532;52.480;13.354;2023-08-24T10:05:09;10.17;;;3.90;;
5026;SDS011;2532;52.480;13.354;2023-08-24T10:07:36;11.00;;;3.80;;
5026;SDS011;2532;52.480;13.354;2023-08-24T10:10:06;9.17;;;4.20;;
5026;SDS011;2532;52.480;13.354;2023-08-24T10:12:39;6.27;;;3.90;;
5026;SDS011;2532;52.480;13.354;2023-08-24T10:15:13;8.57;;;4.90;;
5026;SDS011;2532;52.480;13.354;2023-08-24T10:17:42;8.07;;;3.83;;
5026;SDS011;2532;52.480;13.354;2023-08-24T10:20:10;6.87;;;4.00;;
5026;SDS011;2532;52.480;13.354;2023-08-24T10:22:38;4.70;;;3.30;;
5026;SDS011;2532;52.480;13.354;2023-08-24T10:25:06;12.73;;;4.50;;
5026;SDS011;2532;52.480;13.354;2023-08-24T10:27:34;5.07;;;3.40;;
5026;SDS011;2532;52.480;13.354;2023-08-24T10:30:02;6.87;;;3.67;;
5026;SDS011;2532;52.480;13.354;2023-08-24T10:32:29;5.57;;;3.70;;
5026;SDS011;2532;52.480;13.354;2023-08-24T10:34:58;6.67;;;3.90;;
5026;SDS011;2532;52.480;13.354;2023-08-24T10:37:26;5.47;;;3.70;;
5026;SDS011;2532;52.480;13.354;2023-08-24T10:39:53;5.67;;;3.80;;
5026;SDS011;2532;52.480;13.354;2023-08-24T10:42:21;7.13;;;3.17;;
5026;SDS011;2532;52.480;13.354;2023-08-24T10:44:48;10.83;;;4.63;;
5026;SDS011;2532;52.480;13.354;2023-08-24T10:47:16;5.67;;;3.60;;
5026;SDS011;2532;52.480;13.354;2023-08-24T10:49:59;8.73;;;3.43;;
5026;SDS011;2532;52.480;13.354;2023-08-24T10:52:30;5.33;;;3.97;;
5026;SDS011;2532;52.480;13.354;2023-08-24T10:55:00;11.63;;;4.50;;
5026;SDS011;2532;52.480;13.354;2023-08-24T10:57:34;5.27;;;3.37;;
5026;SDS011;2532;52.480;13.354;2023-08-24T11:00:03;12.27;;;3.73;;
5026;SDS011;2532;52.480;13.354;2023-08-24T11:02:40;8.20;;;4.13;;
5026;SDS011;2532;52.480;13.354;2023-08-24T11:05:16;5.73;;;3.60;;
5026;SDS011;2532;52.480;13.354;2023-08-24T11:07:51;5.37;;;3.40;;
5026;SDS011;2532;52.480;13.354;2023-08-24T11:10:20;7.00;;;3.73;;
5026;SDS011;2532;52.480;13.354;2023-08-24T11:15:36;5.50;;;3.60;;
5026;SDS011;2532;52.480;13.354;2023-08-24T11:18:11;5.70;;;3.83;;
5026;SDS011;2532;52.480;13.354;2023-08-24T11:20:59;31.07;;;5.80;;
5026;SDS011;2532;52.480;13.354;2023-08-24T11:23:28;17.43;;;4.97;;
5026;SDS011;2532;52.480;13.354;2023-08-24T11:25:56;8.80;;;3.70;;
5026;SDS011;2532;52.480;13.354;2023-08-24T11:28:25;5.90;;;4.07;;
5026;SDS011;2532;52.480;13.354;2023-08-24T11:30:54;6.07;;;4.00;;
5026;SDS011;2532;52.480;13.354;2023-08-24T11:33:28;14.60;;;4.00;;
5026;SDS011;2532;52.480;13.354;2023-08-24T11:35:55;7.77;;;3.90;;
5026;SDS011;2532;52.480;13.354;2023-08-24T11:38:24;12.70;;;8.57;;
5026;SDS011;2532;52.480;13.354;2023-08-24T11:40:51;7.20;;;4.10;;
5026;SDS011;2532;52.480;13.354;2023-08-24T11:43:23;5.57;;;4.67;;
5026;SDS011;2532;52.480;13.354;2023-08-24T11:45:51;5.57;;;4.70;;
5026;SDS011;2532;52.480;13.354;2023-08-24T11:48:23;7.07;;;4.20;;
5026;SDS011;2532;52.480;13.354;2023-08-24T11:50:51;5.37;;;4.23;;
5026;SDS011;2532;52.480;13.354;2023-08-24T11:53:19;8.90;;;4.50;;
5026;SDS011;2532;52.480;13.354;2023-08-24T11:55:47;6.87;;;4.07;;
5026;SDS011;2532;52.480;13.354;2023-08-24T11:58:14;7.03;;;3.50;;
5026;SDS011;2532;52.480;13.354;2023-08-24T12:00:42;5.80;;;4.30;;
5026;SDS011;2532;52.480;13.354;2023-08-24T12:03:09;5.70;;;4.00;;
5026;SDS011;2532;52.480;13.354;2023-08-24T12:05:36;6.63;;;4.10;;
5026;SDS011;2532;52.480;13.354;2023-08-24T12:08:03;4.10;;;3.60;;
5026;SDS011;2532;52.480;13.354;2023-08-24T12:10:31;6.83;;;4.60;;
5026;SDS011;2532;52.480;13.354;2023-08-24T12:13:03;8.70;;;3.90;;
5026;SDS011;2532;52.480;13.354;2023-08-24T12:15:33;5.93;;;4.03;;
5026;SDS011;2532;52.480;13.354;2023-08-24T12:18:06;6.83;;;4.30;;
5026;SDS011;2532;52.480;13.354;2023-08-24T12:20:34;9.00;;;4.50;;
5026;SDS011;2532;52.480;13.354;2023-08-24T12:23:01;10.33;;;3.70;;
5026;SDS011;2532;52.480;13.354;2023-08-24T12:25:28;8.60;;;4.20;;
5026;SDS011;2532;52.480;13.354;2023-08-24T12:28:08;4.70;;;3.93;;
5026;SDS011;2532;52.480;13.354;2023-08-24T12:30:43;5.30;;;4.33;;
5026;SDS011;2532;52.480;13.354;2023-08-24T12:33:20;5.20;;;3.57;;
5026;SDS011;2532;52.480;13.354;2023-08-24T12:35:50;5.77;;;4.40;;
5026;SDS011;2532;52.480;13.354;2023-08-24T12:38:17;4.57;;;4.17;;
5026;SDS011;2532;52.480;13.354;2023-08-24T12:40:44;5.50;;;4.17;;
5026;SDS011;2532;52.480;13.354;2023-08-24T12:43:13;7.93;;;4.87;;
5026;SDS011;2532;52.480;13.354;2023-08-24T12:45:40;7.13;;;4.93;;
5026;SDS011;2532;52.480;13.354;2023-08-24T12:48:07;3.63;;;3.10;;
5026;SDS011;2532;52.480;13.354;2023-08-24T12:50:34;7.47;;;4.00;;
5026;SDS011;2532;52.480;13.354;2023-08-24T12:53:01;9.63;;;3.70;;
5026;SDS011;2532;52.480;13.354;2023-08-24T12:55:31;6.10;;;3.70;;
5026;SDS011;2532;52.480;13.354;2023-08-24T12:57:58;5.20;;;3.50;;
5026;SDS011;2532;52.480;13.354;2023-08-24T13:00:26;5.83;;;3.80;;
5026;SDS011;2532;52.480;13.354;2023-08-24T13:02:53;5.00;;;3.30;;
5026;SDS011;2532;52.480;13.354;2023-08-24T13:05:20;10.97;;;4.03;;
5026;SDS011;2532;52.480;13.354;2023-08-24T13:07:47;5.53;;;3.80;;
5026;SDS011;2532;52.480;13.354;2023-08-24T13:10:16;7.33;;;4.60;;
5026;SDS011;2532;52.480;13.354;2023-08-24T13:12:43;5.13;;;3.60;;
5026;SDS011;2532;52.480;13.354;2023-08-24T13:15:11;6.90;;;4.53;;
5026;SDS011;2532;52.480;13.354;2023-08-24T13:17:39;5.77;;;4.13;;
5026;SDS011;2532;52.480;13.354;2023-08-24T13:20:07;6.60;;;3.87;;
5026;SDS011;2532;52.480;13.354;2023-08-24T13:22:34;4.40;;;3.60;;
5026;SDS011;2532;52.480;13.354;2023-08-24T13:25:01;3.97;;;3.50;;
5026;SDS011;2532;52.480;13.354;2023-08-24T13:27:28;6.53;;;4.30;;
5026;SDS011;2532;52.480;13.354;2023-08-24T13:29:55;7.53;;;3.37;;
5026;SDS011;2532;52.480;13.354;2023-08-24T13:32:25;5.77;;;4.00;;
5026;SDS011;2532;52.480;13.354;2023-08-24T13:34:53;5.30;;;4.33;;
5026;SDS011;2532;52.480;13.354;2023-08-24T13:37:21;6.67;;;4.30;;
5026;SDS011;2532;52.480;13.354;2023-08-24T13:39:48;4.90;;;3.60;;
5026;SDS011;2532;52.480;13.354;2023-08-24T13:42:15;8.27;;;3.40;;
5026;SDS011;2532;52.480;13.354;2023-08-24T13:44:42;3.73;;;3.10;;
5026;SDS011;2532;52.480;13.354;2023-08-24T13:47:10;4.57;;;3.93;;
5026;SDS011;2532;52.480;13.354;2023-08-24T13:49:37;4.80;;;4.27;;
5026;SDS011;2532;52.480;13.354;2023-08-24T13:52:05;7.73;;;3.77;;
5026;SDS011;2532;52.480;13.354;2023-08-24T13:54:32;6.30;;;3.20;;
5026;SDS011;2532;52.480;13.354;2023-08-24T13:56:59;4.47;;;3.73;;
5026;SDS011;2532;52.480;13.354;2023-08-24T13:59:26;5.77;;;4.07;;
5026;SDS011;2532;52.480;13.354;2023-08-24T14:01:53;5.60;;;4.10;;
5026;SDS011;2532;52.480;13.354;2023-08-24T14:04:20;6.03;;;3.50;;
5026;SDS011;2532;52.480;13.354;2023-08-24T14:06:47;4.63;;;3.60;;
5026;SDS011;2532;52.480;13.354;2023-08-24T14:09:15;4.53;;;3.60;;
5026;SDS011;2532;52.480;13.354;2023-08-24T14:11:42;8.83;;;4.50;;
5026;SDS011;2532;52.480;13.354;2023-08-24T14:14:09;4.63;;;3.50;;
5026;SDS011;2532;52.480;13.354;2023-08-24T14:16:36;3.70;;;3.33;;
5026;SDS011;2532;52.480;13.354;2023-08-24T14:19:03;4.73;;;3.73;;
5026;SDS011;2532;52.480;13.354;2023-08-24T14:21:30;3.90;;;3.60;;
5026;SDS011;2532;52.480;13.354;2023-08-24T14:23:57;7.37;;;3.30;;
5026;SDS011;2532;52.480;13.354;2023-08-24T14:26:26;5.27;;;3.23;;
5026;SDS011;2532;52.480;13.354;2023-08-24T14:28:53;4.00;;;3.60;;
5026;SDS011;2532;52.480;13.354;2023-08-24T14:31:22;7.40;;;3.53;;
5026;SDS011;2532;52.480;13.354;2023-08-24T14:33:49;9.00;;;3.50;;
5026;SDS011;2532;52.480;13.354;2023-08-24T14:36:17;3.67;;;3.37;;
5026;SDS011;2532;52.480;13.354;2023-08-24T14:38:45;4.20;;;3.60;;
5026;SDS011;2532;52.480;13.354;2023-08-24T14:41:12;5.20;;;3.57;;
5026;SDS011;2532;52.480;13.354;2023-08-24T14:43:41;6.70;;;3.83;;
5026;SDS011;2532;52.480;13.354;2023-08-24T14:46:08;4.90;;;3.57;;
5026;SDS011;2532;52.480;13.354;2023-08-24T14:48:35;6.23;;;3.80;;
5026;SDS011;2532;52.480;13.354;2023-08-24T14:51:02;5.10;;;4.00;;
5026;SDS011;2532;52.480;13.354;2023-08-24T14:53:29;5.30;;;4.20;;
5026;SDS011;2532;52.480;13.354;2023-08-24T14:55:56;10.10;;;4.00;;
5026;SDS011;2532;52.480;13.354;2023-08-24T14:58:24;8.27;;;3.93;;
5026;SDS011;2532;52.480;13.354;2023-08-24T15:00:53;4.07;;;3.40;;
5026;SDS011;2532;52.480;13.354;2023-08-24T15:03:22;6.17;;;4.00;;
5026;SDS011;2532;52.480;13.354;2023-08-24T15:05:55;4.80;;;3.60;;
5026;SDS011;2532;52.480;13.354;2023-08-24T15:08:23;7.67;;;3.73;;
5026;SDS011;2532;52.480;13.354;2023-08-24T15:10:50;8.10;;;3.93;;
5026;SDS011;2532;52.480;13.354;2023-08-24T15:13:17;6.70;;;3.77;;
5026;SDS011;2532;52.480;13.354;2023-08-24T15:15:44;7.57;;;3.90;;
5026;SDS011;2532;52.480;13.354;2023-08-24T15:18:12;8.90;;;4.00;;
5026;SDS011;2532;52.480;13.354;2023-08-24T15:20:39;6.03;;;4.00;;
5026;SDS011;2532;52.480;13.354;2023-08-24T15:23:06;5.60;;;3.90;;
5026;SDS011;2532;52.480;13.354;2023-08-24T15:25:34;5.83;;;4.07;;
5026;SDS011;2532;52.480;13.354;2023-08-24T15:28:01;4.33;;;3.77;;
5026;SDS011;2532;52.480;13.354;2023-08-24T15:30:28;4.00;;;3.43;;
5026;SDS011;2532;52.480;13.354;2023-08-24T15:32:55;6.70;;;3.80;;
5026;SDS011;2532;52.480;13.354;2023-08-24T15:35:23;6.53;;;4.23;;
5026;SDS011;2532;52.480;13.354;2023-08-24T15:37:50;6.70;;;3.90;;
5026;SDS011;2532;52.480;13.354;2023-08-24T15:40:17;10.00;;;4.00;;
5026;SDS011;2532;52.480;13.354;2023-08-24T15:42:44;4.30;;;3.90;;
5026;SDS011;2532;52.480;13.354;2023-08-24T15:45:12;6.63;;;4.43;;
5026;SDS011;2532;52.480;13.354;2023-08-24T15:47:39;3.90;;;3.50;;
5026;SDS011;2532;52.480;13.354;2023-08-24T15:50:06;5.90;;;4.40;;
5026;SDS011;2532;52.480;13.354;2023-08-24T15:52:35;5.03;;;3.80;;
5026;SDS011;2532;52.480;13.354;2023-08-24T15:55:02;6.33;;;4.30;;
5026;SDS011;2532;52.480;13.354;2023-08-24T15:57:30;11.30;;;10.10;;
5026;SDS011;2532;52.480;13.354;2023-08-24T15:59:57;5.20;;;3.30;;
5026;SDS011;2532;52.480;13.354;2023-08-24T16:02:24;7.70;;;4.27;;
5026;SDS011;2532;52.480;13.354;2023-08-24T16:04:50;5.83;;;4.53;;
5026;SDS011;2532;52.480;13.354;2023-08-24T16:07:18;4.77;;;3.90;;
5026;SDS011;2532;52.480;13.354;2023-08-24T16:09:46;6.67;;;4.30;;
5026;SDS011;2532;52.480;13.354;2023-08-24T16:12:13;5.67;;;3.80;;
5026;SDS011;2532;52.480;13.354;2023-08-24T16:14:40;5.13;;;3.73;;
5026;SDS011;2532;52.480;13.354;2023-08-24T16:17:07;6.40;;;4.90;;
5026;SDS011;2532;52.480;13.354;2023-08-24T16:19:34;5.90;;;4.17;;
5026;SDS011;2532;52.480;13.354;2023-08-24T16:22:01;12.27;;;4.37;;
5026;SDS011;2532;52.480;13.354;2023-08-24T16:24:28;5.27;;;4.30;;
5026;SDS011;2532;52.480;13.354;2023-08-24T16:26:56;9.23;;;4.50;;
5026;SDS011;2532;52.480;13.354;2023-08-24T16:29:23;9.17;;;4.03;;
5026;SDS011;2532;52.480;13.354;2023-08-24T16:31:52;7.17;;;5.30;;
5026;SDS011;2532;52.480;13.354;2023-08-24T16:34:19;6.37;;;5.20;;
5026;SDS011;2532;52.480;13.354;2023-08-24T16:36:47;8.43;;;4.80;;
5026;SDS011;2532;52.480;13.354;2023-08-24T16:39:16;5.67;;;5.03;;
5026;SDS011;2532;52.480;13.354;2023-08-24T16:41:43;6.97;;;5.40;;
5026;SDS011;2532;52.480;13.354;2023-08-24T16:44:11;4.73;;;3.97;;
5026;SDS011;2532;52.480;13.354;2023-08-24T16:46:38;5.83;;;4.30;;
5026;SDS011;2532;52.480;13.354;2023-08-24T16:49:05;6.70;;;4.60;;
5026;SDS011;2532;52.480;13.354;2023-08-24T16:51:32;7.00;;;4.27;;
5026;SDS011;2532;52.480;13.354;2023-08-24T16:53:59;5.03;;;4.07;;
5026;SDS011;2532;52.480;13.354;2023-08-24T16:56:26;7.27;;;4.83;;
5026;SDS011;2532;52.480;13.354;2023-08-24T16:58:53;6.60;;;4.47;;
5026;SDS011;2532;52.480;13.354;2023-08-24T17:01:21;7.13;;;4.60;;
5026;SDS011;2532;52.480;13.354;2023-08-24T17:03:48;5.20;;;3.93;;
5026;SDS011;2532;52.480;13.354;2023-08-24T17:06:15;9.33;;;4.50;;
5026;SDS011;2532;52.480;13.354;2023-08-24T17:08:42;6.70;;;4.07;;
5026;SDS011;2532;52.480;13.354;2023-08-24T17:11:09;8.87;;;4.57;;
5026;SDS011;2532;52.480;13.354;2023-08-24T17:13:36;5.57;;;4.20;;
5026;SDS011;2532;52.480;13.354;2023-08-24T17:16:03;5.90;;;4.57;;
5026;SDS011;2532;52.480;13.354;2023-08-24T17:18:32;9.90;;;4.40;;
5026;SDS011;2532;52.480;13.354;2023-08-24T17:21:01;5.20;;;4.10;;
5026;SDS011;2532;52.480;13.354;2023-08-24T17:23:29;4.50;;;3.53;;
5026;SDS011;2532;52.480;13.354;2023-08-24T17:25:56;6.60;;;4.00;;
5026;SDS011;2532;52.480;13.354;2023-08-24T17:28:22;6.07;;;3.90;;
5026;SDS011;2532;52.480;13.354;2023-08-24T17:30:50;4.90;;;4.00;;
5026;SDS011;2532;52.480;13.354;2023-08-24T17:33:17;6.70;;;4.03;;
5026;SDS011;2532;52.480;13.354;2023-08-24T17:35:47;6.30;;;3.93;;
5026;SDS011;2532;52.480;13.354;2023-08-24T17:38:15;8.00;;;5.17;;
5026;SDS011;2532;52.480;13.354;2023-08-24T17:40:42;5.70;;;4.83;;
5026;SDS011;2532;52.480;13.354;2023-08-24T17:43:09;6.47;;;4.70;;
5026;SDS011;2532;52.480;13.354;2023-08-24T17:45:35;11.70;;;6.83;;
5026;SDS011;2532;52.480;13.354;2023-08-24T17:48:03;7.57;;;5.37;;
5026;SDS011;2532;52.480;13.354;2023-08-24T17:50:30;8.80;;;5.40;;
5026;SDS011;2532;52.480;13.354;2023-08-24T17:52:58;6.10;;;5.23;;
5026;SDS011;2532;52.480;13.354;2023-08-24T17:55:25;11.47;;;4.10;;
5026;SDS011;2532;52.480;13.354;2023-08-24T17:57:52;9.30;;;5.43;;
5026;SDS011;2532;52.480;13.354;2023-08-24T18:00:19;10.90;;;5.10;;
5026;SDS011;2532;52.480;13.354;2023-08-24T18:02:46;8.23;;;5.17;;
5026;SDS011;2532;52.480;13.354;2023-08-24T18:05:13;7.47;;;4.93;;
5026;SDS011;2532;52.480;13.354;2023-08-24T18:07:40;7.87;;;4.63;;
5026;SDS011;2532;52.480;13.354;2023-08-24T18:10:09;7.33;;;4.80;;
5026;SDS011;2532;52.480;13.354;2023-08-24T18:12:36;8.00;;;5.60;;
5026;SDS011;2532;52.480;13.354;2023-08-24T18:15:03;5.83;;;4.63;;
5026;SDS011;2532;52.480;13.354;2023-08-24T18:17:32;7.13;;;4.67;;
5026;SDS011;2532;52.480;13.354;2023-08-24T18:19:59;10.70;;;5.50;;
5026;SDS011;2532;52.480;13.354;2023-08-24T18:22:26;9.97;;;5.50;;
5026;SDS011;2532;52.480;13.354;2023-08-24T18:24:53;12.00;;;5.90;;
5026;SDS011;2532;52.480;13.354;2023-08-24T18:27:21;9.83;;;6.47;;
5026;SDS011;2532;52.480;13.354;2023-08-24T18:29:49;9.10;;;6.00;;
5026;SDS011;2532;52.480;13.354;2023-08-24T18:32:19;10.70;;;5.10;;
5026;SDS011;2532;52.480;13.354;2023-08-24T18:34:46;14.93;;;5.23;;
5026;SDS011;2532;52.480;13.354;2023-08-24T18:37:13;7.90;;;5.07;;
5026;SDS011;2532;52.480;13.354;2023-08-24T18:39:41;8.33;;;5.77;;
5026;SDS011;2532;52.480;13.354;2023-08-24T18:42:08;11.10;;;6.57;;
5026;SDS011;2532;52.480;13.354;2023-08-24T18:44:37;9.70;;;6.07;;
5026;SDS011;2532;52.480;13.354;2023-08-24T18:47:04;9.20;;;5.77;;
5026;SDS011;2532;52.480;13.354;2023-08-24T18:49:31;14.90;;;8.27;;
5026;SDS011;2532;52.480;13.354;2023-08-24T18:51:59;9.97;;;5.90;;
5026;SDS011;2532;52.480;13.354;2023-08-24T18:54:26;10.57;;;5.77;;
5026;SDS011;2532;52.480;13.354;2023-08-24T18:56:54;10.10;;;5.47;;
5026;SDS011;2532;52.480;13.354;2023-08-24T18:59:21;8.20;;;5.37;;
5026;SDS011;2532;52.480;13.354;2023-08-24T19:01:50;10.07;;;6.30;;
5026;SDS011;2532;52.480;13.354;2023-08-24T19:04:17;12.63;;;6.83;;